sensor_id;sensor_type;location;lat;lon;timestamp;temperature;humidity
76263;DHT22;65080;50.908;6.916;2023-03-21T00:01:49;12.30;57.60
76263;DHT22;65080;50.908;6.916;2023-03-21T00:04:18;12.30;57.70
76263;DHT22;65080;50.908;6.916;2023-03-21T00:06:48;12.30;57.70
76263;DHT22;65080;50.908;6.916;2023-03-21T00:09:17;12.30;57.70
76263;DHT22;65080;50.908;6.916;2023-03-21T00:11:45;12.30;57.60
76263;DHT22;65080;50.908;6.916;2023-03-21T00:14:14;12.30;57.70
76263;DHT22;65080;50.908;6.916;2023-03-21T00:16:45;12.40;57.80
76263;DHT22;65080;50.908;6.916;2023-03-21T00:19:17;12.30;57.70
76263;DHT22;65080;50.908;6.916;2023-03-21T00:21:48;12.30;57.70
76263;DHT22;65080;50.908;6.916;2023-03-21T00:24:35;12.30;57.70
76263;DHT22;65080;50.908;6.916;2023-03-21T00:27:04;12.30;57.70
76263;DHT22;65080;50.908;6.916;2023-03-21T00:29:53;12.30;57.70
76263;DHT22;65080;50.908;6.916;2023-03-21T00:32:21;12.30;57.70
76263;DHT22;65080;50.908;6.916;2023-03-21T00:34:50;12.30;57.80
76263;DHT22;65080;50.908;6.916;2023-03-21T00:37:39;12.30;57.90
76263;DHT22;65080;50.908;6.916;2023-03-21T00:40:10;12.20;57.80
76263;DHT22;65080;50.908;6.916;2023-03-21T00:42:51;12.30;57.90
76263;DHT22;65080;50.908;6.916;2023-03-21T00:45:19;12.30;58.00
76263;DHT22;65080;50.908;6.916;2023-03-21T00:47:49;12.30;58.00
76263;DHT22;65080;50.908;6.916;2023-03-21T00:50:17;12.30;58.00
76263;DHT22;65080;50.908;6.916;2023-03-21T00:52:48;12.20;57.90
76263;DHT22;65080;50.908;6.916;2023-03-21T00:55:17;12.20;57.90
76263;DHT22;65080;50.908;6.916;2023-03-21T00:57:46;12.20;58.00
76263;DHT22;65080;50.908;6.916;2023-03-21T01:00:27;12.20;58.10
76263;DHT22;65080;50.908;6.916;2023-03-21T01:02:56;12.20;58.10
76263;DHT22;65080;50.908;6.916;2023-03-21T01:05:34;12.20;58.10
76263;DHT22;65080;50.908;6.916;2023-03-21T01:08:23;12.10;58.10
76263;DHT22;65080;50.908;6.916;2023-03-21T01:11:00;12.20;58.20
76263;DHT22;65080;50.908;6.916;2023-03-21T01:13:29;12.20;58.30
76263;DHT22;65080;50.908;6.916;2023-03-21T01:16:00;12.10;58.30
76263;DHT22;65080;50.908;6.916;2023-03-21T01:18:31;12.20;58.40
76263;DHT22;65080;50.908;6.916;2023-03-21T01:21:00;12.20;58.40
76263;DHT22;65080;50.908;6.916;2023-03-21T01:23:30;12.30;58.50
76263;DHT22;65080;50.908;6.916;2023-03-21T01:25:58;12.10;58.40
76263;DHT22;65080;50.908;6.916;2023-03-21T01:28:27;12.10;58.50
76263;DHT22;65080;50.908;6.916;2023-03-21T01:30:56;12.10;58.50
76263;DHT22;65080;50.908;6.916;2023-03-21T01:33:24;12.10;58.60
76263;DHT22;65080;50.908;6.916;2023-03-21T01:35:53;12.10;58.70
76263;DHT22;65080;50.908;6.916;2023-03-21T01:38:39;12.10;58.70
76263;DHT22;65080;50.908;6.916;2023-03-21T01:41:10;12.10;58.70
76263;DHT22;65080;50.908;6.916;2023-03-21T01:43:46;12.10;58.70
76263;DHT22;65080;50.908;6.916;2023-03-21T01:46:37;12.10;58.80
76263;DHT22;65080;50.908;6.916;2023-03-21T01:49:26;12.20;58.90
76263;DHT22;65080;50.908;6.916;2023-03-21T01:52:02;12.20;58.80
76263;DHT22;65080;50.908;6.916;2023-03-21T01:54:43;12.20;58.80
76263;DHT22;65080;50.908;6.916;2023-03-21T01:57:17;12.20;58.80
76263;DHT22;65080;50.908;6.916;2023-03-21T01:59:47;12.20;58.90
76263;DHT22;65080;50.908;6.916;2023-03-21T02:02:21;12.20;59.50
76263;DHT22;65080;50.908;6.916;2023-03-21T02:04:51;12.20;58.90
76263;DHT22;65080;50.908;6.916;2023-03-21T02:07:25;12.20;59.00
76263;DHT22;65080;50.908;6.916;2023-03-21T02:09:57;12.20;59.00
76263;DHT22;65080;50.908;6.916;2023-03-21T02:12:26;12.40;59.20
76263;DHT22;65080;50.908;6.916;2023-03-21T02:14:55;12.20;59.60
76263;DHT22;65080;50.908;6.916;2023-03-21T02:17:28;12.20;59.00
76263;DHT22;65080;50.908;6.916;2023-03-21T02:23:59;12.20;59.10
76263;DHT22;65080;50.908;6.916;2023-03-21T02:33:34;12.10;59.10
76263;DHT22;65080;50.908;6.916;2023-03-21T02:36:16;12.10;59.10
76263;DHT22;65080;50.908;6.916;2023-03-21T02:38:53;12.10;59.20
76263;DHT22;65080;50.908;6.916;2023-03-21T02:41:28;12.20;59.40
76263;DHT22;65080;50.908;6.916;2023-03-21T02:44:10;12.00;59.20
76263;DHT22;65080;50.908;6.916;2023-03-21T02:46:43;12.00;59.30
76263;DHT22;65080;50.908;6.916;2023-03-21T02:49:26;12.00;59.30
76263;DHT22;65080;50.908;6.916;2023-03-21T02:51:58;12.00;59.40
76263;DHT22;65080;50.908;6.916;2023-03-21T02:54:43;12.00;59.40
76263;DHT22;65080;50.908;6.916;2023-03-21T02:57:17;12.00;59.50
76263;DHT22;65080;50.908;6.916;2023-03-21T02:59:47;12.00;59.50
76263;DHT22;65080;50.908;6.916;2023-03-21T03:02:26;12.00;59.50
76263;DHT22;65080;50.908;6.916;2023-03-21T03:04:55;12.00;59.60
76263;DHT22;65080;50.908;6.916;2023-03-21T03:07:33;12.00;59.60
76263;DHT22;65080;50.908;6.916;2023-03-21T03:10:20;12.00;59.70
76263;DHT22;65080;50.908;6.916;2023-03-21T03:12:57;12.00;59.70
76263;DHT22;65080;50.908;6.916;2023-03-21T03:15:34;12.00;59.70
76263;DHT22;65080;50.908;6.916;2023-03-21T03:18:11;12.00;59.70
76263;DHT22;65080;50.908;6.916;2023-03-21T03:20:49;12.00;59.70
76263;DHT22;65080;50.908;6.916;2023-03-21T03:23:24;12.10;59.80
76263;DHT22;65080;50.908;6.916;2023-03-21T03:26:01;12.00;59.70
76263;DHT22;65080;50.908;6.916;2023-03-21T03:28:30;12.10;59.90
76263;DHT22;65080;50.908;6.916;2023-03-21T03:31:00;12.00;59.90
76263;DHT22;65080;50.908;6.916;2023-03-21T03:33:38;12.00;59.90
76263;DHT22;65080;50.908;6.916;2023-03-21T03:36:10;12.00;59.90
76263;DHT22;65080;50.908;6.916;2023-03-21T03:38:57;12.00;59.90
76263;DHT22;65080;50.908;6.916;2023-03-21T03:41:27;11.90;59.80
76263;DHT22;65080;50.908;6.916;2023-03-21T03:44:16;11.90;60.00
76263;DHT22;65080;50.908;6.916;2023-03-21T03:46:49;11.90;60.00
76263;DHT22;65080;50.908;6.916;2023-03-21T03:49:22;11.80;59.90
76263;DHT22;65080;50.908;6.916;2023-03-21T03:51:55;11.90;60.10
76263;DHT22;65080;50.908;6.916;2023-03-21T03:54:28;11.90;60.10
76263;DHT22;65080;50.908;6.916;2023-03-21T03:56:59;11.80;60.10
76263;DHT22;65080;50.908;6.916;2023-03-21T03:59:28;11.80;60.20
76263;DHT22;65080;50.908;6.916;2023-03-21T04:01:56;11.70;60.20
76263;DHT22;65080;50.908;6.916;2023-03-21T04:04:24;11.70;60.30
76263;DHT22;65080;50.908;6.916;2023-03-21T04:06:55;11.70;60.40
76263;DHT22;65080;50.908;6.916;2023-03-21T04:09:25;11.70;60.50
76263;DHT22;65080;50.908;6.916;2023-03-21T04:12:11;11.70;60.60
76263;DHT22;65080;50.908;6.916;2023-03-21T04:14:39;11.70;60.60
76263;DHT22;65080;50.908;6.916;2023-03-21T04:17:13;11.70;60.60
76263;DHT22;65080;50.908;6.916;2023-03-21T04:19:42;11.70;60.80
76263;DHT22;65080;50.908;6.916;2023-03-21T04:22:11;11.60;60.80
76263;DHT22;65080;50.908;6.916;2023-03-21T04:24:40;11.60;60.80
76263;DHT22;65080;50.908;6.916;2023-03-21T04:27:08;11.70;61.00
76263;DHT22;65080;50.908;6.916;2023-03-21T04:29:38;11.50;60.90
76263;DHT22;65080;50.908;6.916;2023-03-21T04:32:07;11.60;61.10
76263;DHT22;65080;50.908;6.916;2023-03-21T04:34:43;11.70;61.30
76263;DHT22;65080;50.908;6.916;2023-03-21T04:37:16;11.60;61.20
76263;DHT22;65080;50.908;6.916;2023-03-21T04:39:45;11.60;61.30
76263;DHT22;65080;50.908;6.916;2023-03-21T04:42:14;11.60;61.50
76263;DHT22;65080;50.908;6.916;2023-03-21T04:44:46;11.60;61.50
76263;DHT22;65080;50.908;6.916;2023-03-21T04:47:14;11.60;61.50
76263;DHT22;65080;50.908;6.916;2023-03-21T04:49:42;11.70;61.60
76263;DHT22;65080;50.908;6.916;2023-03-21T04:52:11;11.70;61.60
76263;DHT22;65080;50.908;6.916;2023-03-21T04:54:39;11.70;61.60
76263;DHT22;65080;50.908;6.916;2023-03-21T04:57:08;11.60;61.60
76263;DHT22;65080;50.908;6.916;2023-03-21T04:59:36;11.80;61.70
76263;DHT22;65080;50.908;6.916;2023-03-21T05:02:06;11.80;61.70
76263;DHT22;65080;50.908;6.916;2023-03-21T05:04:34;11.80;61.70
76263;DHT22;65080;50.908;6.916;2023-03-21T05:07:02;11.80;61.70
76263;DHT22;65080;50.908;6.916;2023-03-21T05:09:31;11.80;61.70
76263;DHT22;65080;50.908;6.916;2023-03-21T05:11:59;11.80;61.80
76263;DHT22;65080;50.908;6.916;2023-03-21T05:14:27;11.80;61.90
76263;DHT22;65080;50.908;6.916;2023-03-21T05:16:55;11.80;61.90
76263;DHT22;65080;50.908;6.916;2023-03-21T05:19:26;11.80;61.90
76263;DHT22;65080;50.908;6.916;2023-03-21T05:22:02;11.80;61.90
76263;DHT22;65080;50.908;6.916;2023-03-21T05:24:31;11.80;61.90
76263;DHT22;65080;50.908;6.916;2023-03-21T05:27:00;11.80;62.00
76263;DHT22;65080;50.908;6.916;2023-03-21T05:29:31;11.80;62.10
76263;DHT22;65080;50.908;6.916;2023-03-21T05:32:00;11.80;62.10
76263;DHT22;65080;50.908;6.916;2023-03-21T05:34:29;11.80;62.00
76263;DHT22;65080;50.908;6.916;2023-03-21T05:36:58;11.80;62.00
76263;DHT22;65080;50.908;6.916;2023-03-21T05:39:26;11.80;62.10
76263;DHT22;65080;50.908;6.916;2023-03-21T05:41:54;11.80;62.10
76263;DHT22;65080;50.908;6.916;2023-03-21T05:44:22;11.80;62.20
76263;DHT22;65080;50.908;6.916;2023-03-21T05:46:51;11.90;62.30
76263;DHT22;65080;50.908;6.916;2023-03-21T05:49:19;11.90;62.20
76263;DHT22;65080;50.908;6.916;2023-03-21T05:51:51;11.80;62.20
76263;DHT22;65080;50.908;6.916;2023-03-21T05:54:19;11.90;62.30
76263;DHT22;65080;50.908;6.916;2023-03-21T05:56:48;11.80;62.20
76263;DHT22;65080;50.908;6.916;2023-03-21T05:59:16;11.80;62.20
76263;DHT22;65080;50.908;6.916;2023-03-21T06:01:44;11.70;62.20
76263;DHT22;65080;50.908;6.916;2023-03-21T06:04:13;11.90;62.40
76263;DHT22;65080;50.908;6.916;2023-03-21T06:06:42;11.90;62.50
76263;DHT22;65080;50.908;6.916;2023-03-21T06:09:12;11.90;62.50
76263;DHT22;65080;50.908;6.916;2023-03-21T06:11:45;11.90;62.50
76263;DHT22;65080;50.908;6.916;2023-03-21T06:14:14;11.90;62.50
76263;DHT22;65080;50.908;6.916;2023-03-21T06:16:43;12.00;62.60
76263;DHT22;65080;50.908;6.916;2023-03-21T06:19:11;12.00;62.50
76263;DHT22;65080;50.908;6.916;2023-03-21T06:21:40;12.00;62.50
76263;DHT22;65080;50.908;6.916;2023-03-21T06:24:08;12.00;62.50
76263;DHT22;65080;50.908;6.916;2023-03-21T06:26:38;12.10;62.60
76263;DHT22;65080;50.908;6.916;2023-03-21T06:29:08;12.00;62.40
76263;DHT22;65080;50.908;6.916;2023-03-21T06:31:37;12.00;62.50
76263;DHT22;65080;50.908;6.916;2023-03-21T06:34:05;12.00;62.50
76263;DHT22;65080;50.908;6.916;2023-03-21T06:36:34;12.10;62.50
76263;DHT22;65080;50.908;6.916;2023-03-21T06:39:02;12.00;62.50
76263;DHT22;65080;50.908;6.916;2023-03-21T06:41:30;12.00;62.50
76263;DHT22;65080;50.908;6.916;2023-03-21T06:44:00;12.00;62.50
76263;DHT22;65080;50.908;6.916;2023-03-21T06:46:28;12.10;63.40
76263;DHT22;65080;50.908;6.916;2023-03-21T06:48:57;12.10;62.60
76263;DHT22;65080;50.908;6.916;2023-03-21T06:51:25;12.20;62.60
76263;DHT22;65080;50.908;6.916;2023-03-21T06:53:53;12.20;62.60
76263;DHT22;65080;50.908;6.916;2023-03-21T06:56:22;12.20;62.60
76263;DHT22;65080;50.908;6.916;2023-03-21T06:58:50;12.20;62.70
76263;DHT22;65080;50.908;6.916;2023-03-21T07:01:20;12.20;62.80
76263;DHT22;65080;50.908;6.916;2023-03-21T07:03:48;12.20;63.00
76263;DHT22;65080;50.908;6.916;2023-03-21T07:06:18;12.20;63.20
76263;DHT22;65080;50.908;6.916;2023-03-21T07:08:46;12.30;63.60
76263;DHT22;65080;50.908;6.916;2023-03-21T07:11:14;12.30;63.70
76263;DHT22;65080;50.908;6.916;2023-03-21T07:13:43;12.30;63.90
76263;DHT22;65080;50.908;6.916;2023-03-21T07:16:11;12.30;64.20
76263;DHT22;65080;50.908;6.916;2023-03-21T07:18:41;12.30;64.40
76263;DHT22;65080;50.908;6.916;2023-03-21T07:21:09;12.30;64.60
76263;DHT22;65080;50.908;6.916;2023-03-21T07:23:39;12.30;64.70
76263;DHT22;65080;50.908;6.916;2023-03-21T07:26:07;12.30;65.10
76263;DHT22;65080;50.908;6.916;2023-03-21T07:28:36;12.20;65.30
76263;DHT22;65080;50.908;6.916;2023-03-21T07:31:05;12.20;65.70
76263;DHT22;65080;50.908;6.916;2023-03-21T07:33:35;12.20;66.00
76263;DHT22;65080;50.908;6.916;2023-03-21T07:36:09;12.20;66.40
76263;DHT22;65080;50.908;6.916;2023-03-21T07:38:38;12.10;66.90
76263;DHT22;65080;50.908;6.916;2023-03-21T07:41:07;12.00;67.30
76263;DHT22;65080;50.908;6.916;2023-03-21T07:43:35;11.90;67.70
76263;DHT22;65080;50.908;6.916;2023-03-21T07:46:05;12.10;68.40
76263;DHT22;65080;50.908;6.916;2023-03-21T07:48:33;12.00;68.70
76263;DHT22;65080;50.908;6.916;2023-03-21T07:51:04;12.00;69.00
76263;DHT22;65080;50.908;6.916;2023-03-21T07:53:33;12.00;69.40
76263;DHT22;65080;50.908;6.916;2023-03-21T07:56:01;12.00;69.60
76263;DHT22;65080;50.908;6.916;2023-03-21T07:58:30;12.00;69.80
76263;DHT22;65080;50.908;6.916;2023-03-21T08:01:00;12.00;70.20
76263;DHT22;65080;50.908;6.916;2023-03-21T08:03:29;11.90;70.50
76263;DHT22;65080;50.908;6.916;2023-03-21T08:05:59;11.90;70.70
76263;DHT22;65080;50.908;6.916;2023-03-21T08:08:29;11.90;71.00
76263;DHT22;65080;50.908;6.916;2023-03-21T08:10:57;11.90;71.40
76263;DHT22;65080;50.908;6.916;2023-03-21T08:13:26;11.80;71.60
76263;DHT22;65080;50.908;6.916;2023-03-21T08:15:54;11.80;71.90
76263;DHT22;65080;50.908;6.916;2023-03-21T08:18:23;11.80;72.30
76263;DHT22;65080;50.908;6.916;2023-03-21T08:20:51;11.70;72.60
76263;DHT22;65080;50.908;6.916;2023-03-21T08:23:20;11.70;72.90
76263;DHT22;65080;50.908;6.916;2023-03-21T08:25:51;11.70;73.10
76263;DHT22;65080;50.908;6.916;2023-03-21T08:28:20;11.70;73.30
76263;DHT22;65080;50.908;6.916;2023-03-21T08:30:49;11.60;73.30
76263;DHT22;65080;50.908;6.916;2023-03-21T08:33:17;11.60;73.60
76263;DHT22;65080;50.908;6.916;2023-03-21T08:35:46;11.60;73.80
76263;DHT22;65080;50.908;6.916;2023-03-21T08:38:14;11.60;74.00
76263;DHT22;65080;50.908;6.916;2023-03-21T08:40:43;11.60;74.40
76263;DHT22;65080;50.908;6.916;2023-03-21T08:43:12;11.50;74.40
76263;DHT22;65080;50.908;6.916;2023-03-21T08:45:41;11.60;74.60
76263;DHT22;65080;50.908;6.916;2023-03-21T08:48:09;11.60;74.70
76263;DHT22;65080;50.908;6.916;2023-03-21T08:50:37;11.50;74.70
76263;DHT22;65080;50.908;6.916;2023-03-21T08:53:06;11.50;75.00
76263;DHT22;65080;50.908;6.916;2023-03-21T08:55:37;11.50;75.10
76263;DHT22;65080;50.908;6.916;2023-03-21T08:58:05;11.50;75.20
76263;DHT22;65080;50.908;6.916;2023-03-21T09:00:35;11.50;75.40
76263;DHT22;65080;50.908;6.916;2023-03-21T09:03:03;11.50;75.60
76263;DHT22;65080;50.908;6.916;2023-03-21T09:05:32;11.50;75.60
76263;DHT22;65080;50.908;6.916;2023-03-21T09:08:03;11.50;75.80
76263;DHT22;65080;50.908;6.916;2023-03-21T09:10:31;11.50;76.00
76263;DHT22;65080;50.908;6.916;2023-03-21T09:13:00;11.50;76.10
76263;DHT22;65080;50.908;6.916;2023-03-21T09:15:28;11.50;76.30
76263;DHT22;65080;50.908;6.916;2023-03-21T09:17:59;11.50;76.40
76263;DHT22;65080;50.908;6.916;2023-03-21T09:20:39;11.50;76.60
76263;DHT22;65080;50.908;6.916;2023-03-21T09:23:09;11.40;76.60
76263;DHT22;65080;50.908;6.916;2023-03-21T09:25:38;11.50;76.80
76263;DHT22;65080;50.908;6.916;2023-03-21T09:28:07;11.50;76.80
76263;DHT22;65080;50.908;6.916;2023-03-21T09:30:36;11.50;76.80
76263;DHT22;65080;50.908;6.916;2023-03-21T09:33:06;11.40;76.80
76263;DHT22;65080;50.908;6.916;2023-03-21T09:35:34;11.60;77.10
76263;DHT22;65080;50.908;6.916;2023-03-21T09:38:03;11.60;77.20
76263;DHT22;65080;50.908;6.916;2023-03-21T09:40:55;11.60;77.30
76263;DHT22;65080;50.908;6.916;2023-03-21T09:43:36;11.60;77.50
76263;DHT22;65080;50.908;6.916;2023-03-21T09:46:11;11.70;77.30
76263;DHT22;65080;50.908;6.916;2023-03-21T09:48:48;11.70;77.30
76263;DHT22;65080;50.908;6.916;2023-03-21T09:51:26;11.70;77.40
76263;DHT22;65080;50.908;6.916;2023-03-21T09:53:58;11.70;77.30
76263;DHT22;65080;50.908;6.916;2023-03-21T09:56:28;11.70;77.40
76263;DHT22;65080;50.908;6.916;2023-03-21T09:58:58;11.70;77.30
76263;DHT22;65080;50.908;6.916;2023-03-21T10:01:29;11.70;77.20
76263;DHT22;65080;50.908;6.916;2023-03-21T10:04:03;11.60;77.10
76263;DHT22;65080;50.908;6.916;2023-03-21T10:06:34;11.60;77.20
76263;DHT22;65080;50.908;6.916;2023-03-21T10:09:10;11.60;77.10
76263;DHT22;65080;50.908;6.916;2023-03-21T10:11:42;11.60;77.30
76263;DHT22;65080;50.908;6.916;2023-03-21T10:14:17;11.60;77.40
76263;DHT22;65080;50.908;6.916;2023-03-21T10:16:48;11.60;77.50
76263;DHT22;65080;50.908;6.916;2023-03-21T10:19:19;11.50;77.30
76263;DHT22;65080;50.908;6.916;2023-03-21T10:21:50;11.50;77.20
76263;DHT22;65080;50.908;6.916;2023-03-21T10:24:31;11.60;77.40
76263;DHT22;65080;50.908;6.916;2023-03-21T10:27:01;11.60;77.50
76263;DHT22;65080;50.908;6.916;2023-03-21T10:29:32;11.60;77.60
76263;DHT22;65080;50.908;6.916;2023-03-21T10:32:03;11.70;78.20
76263;DHT22;65080;50.908;6.916;2023-03-21T10:34:36;11.80;77.90
76263;DHT22;65080;50.908;6.916;2023-03-21T10:37:06;11.80;78.00
76263;DHT22;65080;50.908;6.916;2023-03-21T10:39:37;11.90;78.00
76263;DHT22;65080;50.908;6.916;2023-03-21T10:42:08;11.90;78.50
76263;DHT22;65080;50.908;6.916;2023-03-21T10:44:46;11.90;77.70
76263;DHT22;65080;50.908;6.916;2023-03-21T10:47:19;12.00;77.90
76263;DHT22;65080;50.908;6.916;2023-03-21T10:49:50;12.00;77.70
76263;DHT22;65080;50.908;6.916;2023-03-21T10:52:37;12.10;77.50
76263;DHT22;65080;50.908;6.916;2023-03-21T10:55:19;12.10;77.30
76263;DHT22;65080;50.908;6.916;2023-03-21T10:57:52;12.20;77.20
76263;DHT22;65080;50.908;6.916;2023-03-21T11:00:26;12.10;77.00
76263;DHT22;65080;50.908;6.916;2023-03-21T11:02:56;12.30;77.30
76263;DHT22;65080;50.908;6.916;2023-03-21T11:05:32;12.30;77.20
76263;DHT22;65080;50.908;6.916;2023-03-21T11:08:03;12.40;77.20
76263;DHT22;65080;50.908;6.916;2023-03-21T11:10:34;12.40;76.80
76263;DHT22;65080;50.908;6.916;2023-03-21T11:13:06;12.30;76.40
76263;DHT22;65080;50.908;6.916;2023-03-21T11:15:41;12.40;76.20
76263;DHT22;65080;50.908;6.916;2023-03-21T11:18:16;12.30;75.90
76263;DHT22;65080;50.908;6.916;2023-03-21T11:20:52;12.30;75.90
76263;DHT22;65080;50.908;6.916;2023-03-21T11:23:26;12.30;75.90
76263;DHT22;65080;50.908;6.916;2023-03-21T11:25:56;12.20;75.70
76263;DHT22;65080;50.908;6.916;2023-03-21T11:28:32;12.20;75.80
76263;DHT22;65080;50.908;6.916;2023-03-21T11:31:01;12.20;75.90
76263;DHT22;65080;50.908;6.916;2023-03-21T11:33:33;12.20;75.70
76263;DHT22;65080;50.908;6.916;2023-03-21T11:36:06;12.20;75.80
76263;DHT22;65080;50.908;6.916;2023-03-21T11:38:37;12.20;75.90
76263;DHT22;65080;50.908;6.916;2023-03-21T11:41:06;12.20;75.80
76263;DHT22;65080;50.908;6.916;2023-03-21T11:43:36;12.20;75.50
76263;DHT22;65080;50.908;6.916;2023-03-21T11:46:06;12.10;75.30
76263;DHT22;65080;50.908;6.916;2023-03-21T11:48:39;12.10;75.30
76263;DHT22;65080;50.908;6.916;2023-03-21T11:51:17;12.00;75.30
76263;DHT22;65080;50.908;6.916;2023-03-21T11:53:51;12.00;75.40
76263;DHT22;65080;50.908;6.916;2023-03-21T11:56:27;12.00;75.50
76263;DHT22;65080;50.908;6.916;2023-03-21T11:59:12;12.00;75.90
76263;DHT22;65080;50.908;6.916;2023-03-21T12:04:39;12.00;76.20
76263;DHT22;65080;50.908;6.916;2023-03-21T12:07:24;12.00;76.20
76263;DHT22;65080;50.908;6.916;2023-03-21T12:10:03;12.00;76.40
76263;DHT22;65080;50.908;6.916;2023-03-21T12:12:40;11.90;76.40
76263;DHT22;65080;50.908;6.916;2023-03-21T12:15:18;11.90;77.40
76263;DHT22;65080;50.908;6.916;2023-03-21T12:17:55;11.90;77.00
76263;DHT22;65080;50.908;6.916;2023-03-21T12:20:36;11.80;77.20
76263;DHT22;65080;50.908;6.916;2023-03-21T12:23:18;11.90;77.40
76263;DHT22;65080;50.908;6.916;2023-03-21T12:25:55;11.90;77.40
76263;DHT22;65080;50.908;6.916;2023-03-21T12:28:31;12.00;77.50
76263;DHT22;65080;50.908;6.916;2023-03-21T12:31:08;12.00;77.40
76263;DHT22;65080;50.908;6.916;2023-03-21T12:33:49;12.00;77.50
76263;DHT22;65080;50.908;6.916;2023-03-21T12:36:34;11.90;77.60
76263;DHT22;65080;50.908;6.916;2023-03-21T12:39:17;12.00;77.70
76263;DHT22;65080;50.908;6.916;2023-03-21T12:41:53;12.00;77.60
76263;DHT22;65080;50.908;6.916;2023-03-21T12:44:28;12.10;77.80
76263;DHT22;65080;50.908;6.916;2023-03-21T12:47:00;12.20;77.80
76263;DHT22;65080;50.908;6.916;2023-03-21T12:49:33;12.20;77.70
76263;DHT22;65080;50.908;6.916;2023-03-21T12:52:05;12.20;77.70
76263;DHT22;65080;50.908;6.916;2023-03-21T12:54:38;12.20;77.60
76263;DHT22;65080;50.908;6.916;2023-03-21T12:57:10;12.30;77.70
76263;DHT22;65080;50.908;6.916;2023-03-21T12:59:45;12.30;77.50
76263;DHT22;65080;50.908;6.916;2023-03-21T13:02:19;12.30;77.30
76263;DHT22;65080;50.908;6.916;2023-03-21T13:04:56;12.30;77.20
76263;DHT22;65080;50.908;6.916;2023-03-21T13:07:28;12.30;77.20
76263;DHT22;65080;50.908;6.916;2023-03-21T13:10:05;12.30;77.10
76263;DHT22;65080;50.908;6.916;2023-03-21T13:12:49;12.40;77.10
76263;DHT22;65080;50.908;6.916;2023-03-21T13:15:37;12.40;76.90
76263;DHT22;65080;50.908;6.916;2023-03-21T13:18:15;12.50;76.70
76263;DHT22;65080;50.908;6.916;2023-03-21T13:20:47;12.50;76.50
76263;DHT22;65080;50.908;6.916;2023-03-21T13:23:17;12.60;76.60
76263;DHT22;65080;50.908;6.916;2023-03-21T13:25:48;12.60;76.60
76263;DHT22;65080;50.908;6.916;2023-03-21T13:28:20;12.70;76.80
76263;DHT22;65080;50.908;6.916;2023-03-21T13:30:49;12.80;76.60
76263;DHT22;65080;50.908;6.916;2023-03-21T13:33:21;12.90;76.50
76263;DHT22;65080;50.908;6.916;2023-03-21T13:35:58;12.90;76.40
76263;DHT22;65080;50.908;6.916;2023-03-21T13:38:32;12.90;76.20
76263;DHT22;65080;50.908;6.916;2023-03-21T13:41:06;12.90;76.10
76263;DHT22;65080;50.908;6.916;2023-03-21T13:43:41;12.90;76.10
76263;DHT22;65080;50.908;6.916;2023-03-21T13:46:11;12.90;76.00
76263;DHT22;65080;50.908;6.916;2023-03-21T13:48:43;13.00;75.90
76263;DHT22;65080;50.908;6.916;2023-03-21T13:51:44;12.90;75.50
76263;DHT22;65080;50.908;6.916;2023-03-21T13:54:27;12.90;75.40
76263;DHT22;65080;50.908;6.916;2023-03-21T13:56:59;12.90;75.40
76263;DHT22;65080;50.908;6.916;2023-03-21T13:59:39;12.90;75.30
76263;DHT22;65080;50.908;6.916;2023-03-21T14:02:29;12.90;75.20
76263;DHT22;65080;50.908;6.916;2023-03-21T14:05:01;12.90;75.30
76263;DHT22;65080;50.908;6.916;2023-03-21T14:07:39;13.00;75.30
76263;DHT22;65080;50.908;6.916;2023-03-21T14:10:18;13.10;75.30
76263;DHT22;65080;50.908;6.916;2023-03-21T14:12:48;13.20;75.30
76263;DHT22;65080;50.908;6.916;2023-03-21T14:15:19;13.20;75.10
76263;DHT22;65080;50.908;6.916;2023-03-21T14:17:50;13.30;74.90
76263;DHT22;65080;50.908;6.916;2023-03-21T14:20:22;13.40;74.80
76263;DHT22;65080;50.908;6.916;2023-03-21T14:22:51;13.40;74.60
76263;DHT22;65080;50.908;6.916;2023-03-21T14:25:22;13.50;74.60
76263;DHT22;65080;50.908;6.916;2023-03-21T14:28:00;13.50;74.50
76263;DHT22;65080;50.908;6.916;2023-03-21T14:30:32;13.60;74.20
76263;DHT22;65080;50.908;6.916;2023-03-21T14:33:06;13.60;73.90
76263;DHT22;65080;50.908;6.916;2023-03-21T14:35:35;13.70;73.50
76263;DHT22;65080;50.908;6.916;2023-03-21T14:38:05;13.70;74.00
76263;DHT22;65080;50.908;6.916;2023-03-21T14:40:35;13.70;73.00
76263;DHT22;65080;50.908;6.916;2023-03-21T14:43:05;13.70;72.80
76263;DHT22;65080;50.908;6.916;2023-03-21T14:45:34;13.70;72.60
76263;DHT22;65080;50.908;6.916;2023-03-21T14:48:07;13.80;72.60
76263;DHT22;65080;50.908;6.916;2023-03-21T14:50:38;13.80;72.40
76263;DHT22;65080;50.908;6.916;2023-03-21T14:53:14;13.80;72.20
76263;DHT22;65080;50.908;6.916;2023-03-21T14:55:45;13.80;72.00
76263;DHT22;65080;50.908;6.916;2023-03-21T14:58:15;13.80;71.90
76263;DHT22;65080;50.908;6.916;2023-03-21T15:00:47;13.90;71.90
76263;DHT22;65080;50.908;6.916;2023-03-21T15:03:17;14.00;71.60
76263;DHT22;65080;50.908;6.916;2023-03-21T15:05:46;14.10;71.30
76263;DHT22;65080;50.908;6.916;2023-03-21T15:08:17;14.10;71.00
76263;DHT22;65080;50.908;6.916;2023-03-21T15:10:53;14.10;70.90
76263;DHT22;65080;50.908;6.916;2023-03-21T15:13:35;14.30;70.90
76263;DHT22;65080;50.908;6.916;2023-03-21T15:16:04;14.50;70.80
76263;DHT22;65080;50.908;6.916;2023-03-21T15:18:36;14.60;70.40
76263;DHT22;65080;50.908;6.916;2023-03-21T15:21:08;14.70;70.20
76263;DHT22;65080;50.908;6.916;2023-03-21T15:23:39;14.80;70.00
76263;DHT22;65080;50.908;6.916;2023-03-21T15:26:13;15.00;69.90
76263;DHT22;65080;50.908;6.916;2023-03-21T15:28:46;15.20;69.70
76263;DHT22;65080;50.908;6.916;2023-03-21T15:31:19;15.50;69.30
76263;DHT22;65080;50.908;6.916;2023-03-21T15:33:50;15.50;68.70
76263;DHT22;65080;50.908;6.916;2023-03-21T15:36:20;15.60;68.50
76263;DHT22;65080;50.908;6.916;2023-03-21T15:38:49;15.60;68.20
76263;DHT22;65080;50.908;6.916;2023-03-21T15:41:29;15.70;68.10
76263;DHT22;65080;50.908;6.916;2023-03-21T15:44:10;15.80;67.40
76263;DHT22;65080;50.908;6.916;2023-03-21T15:46:41;16.10;67.30
76263;DHT22;65080;50.908;6.916;2023-03-21T15:49:18;16.50;67.00
76263;DHT22;65080;50.908;6.916;2023-03-21T15:51:50;16.90;66.00
76263;DHT22;65080;50.908;6.916;2023-03-21T15:54:22;17.20;65.10
76263;DHT22;65080;50.908;6.916;2023-03-21T15:56:53;17.60;64.30
76263;DHT22;65080;50.908;6.916;2023-03-21T15:59:26;17.80;63.50
76263;DHT22;65080;50.908;6.916;2023-03-21T16:01:55;17.90;62.50
76263;DHT22;65080;50.908;6.916;2023-03-21T16:04:24;17.90;61.90
76263;DHT22;65080;50.908;6.916;2023-03-21T16:06:57;17.80;61.30
76263;DHT22;65080;50.908;6.916;2023-03-21T16:09:27;17.70;60.70
76263;DHT22;65080;50.908;6.916;2023-03-21T16:11:57;17.60;60.80
76263;DHT22;65080;50.908;6.916;2023-03-21T16:14:27;17.60;60.30
76263;DHT22;65080;50.908;6.916;2023-03-21T16:16:56;17.60;59.60